sensor_id;sensor_type;location;lat;lon;timestamp;pressure;altitude;pressure_sealevel;temperature;humidity
61908;BME280;47864;52.526;19.672;2023-04-23T00:00:26;100562.53;;;8.51;100.00
61908;BME280;47864;52.526;19.672;2023-04-23T00:02:29;100550.72;;;8.46;100.00
61908;BME280;47864;52.526;19.672;2023-04-23T00:04:35;100564.22;;;8.52;100.00
61908;BME280;47864;52.526;19.672;2023-04-23T00:06:38;100560.88;;;8.50;100.00
61908;BME280;47864;52.526;19.672;2023-04-23T00:08:40;100547.81;;;8.39;100.00
61908;BME280;47864;52.526;19.672;2023-04-23T00:10:42;100551.81;;;8.43;100.00
61908;BME280;47864;52.526;19.672;2023-04-23T00:12:44;100542.38;;;8.31;100.00
61908;BME280;47864;52.526;19.672;2023-04-23T00:14:46;100533.28;;;8.24;100.00
61908;BME280;47864;52.526;19.672;2023-04-23T00:16:48;100556.69;;;8.38;100.00
61908;BME280;47864;52.526;19.672;2023-04-23T00:18:49;100554.19;;;8.36;100.00
61908;BME280;47864;52.526;19.672;2023-04-23T00:20:51;100540.41;;;8.33;100.00
61908;BME280;47864;52.526;19.672;2023-04-23T00:22:52;100552.78;;;8.42;100.00
61908;BME280;47864;52.526;19.672;2023-04-23T00:24:54;100543.75;;;8.35;100.00
61908;BME280;47864;52.526;19.672;2023-04-23T00:26:55;100545.44;;;8.36;100.00
61908;BME280;47864;52.526;19.672;2023-04-23T00:28:57;100556.69;;;8.38;100.00
61908;BME280;47864;52.526;19.672;2023-04-23T00:30:58;100547.50;;;8.32;100.00
61908;BME280;47864;52.526;19.672;2023-04-23T00:33:00;100541.63;;;8.29;100.00
61908;BME280;47864;52.526;19.672;2023-04-23T00:35:01;100551.09;;;8.22;100.00
61908;BME280;47864;52.526;19.672;2023-04-23T00:37:03;100535.47;;;8.09;100.00
61908;BME280;47864;52.526;19.672;2023-04-23T00:39:04;100546.31;;;8.16;100.00
61908;BME280;47864;52.526;19.672;2023-04-23T00:41:06;100526.31;;;8.03;100.00
61908;BME280;47864;52.526;19.672;2023-04-23T00:43:07;100548.16;;;8.15;100.00
61908;BME280;47864;52.526;19.672;2023-04-23T00:45:09;100547.16;;;8.16;100.00
61908;BME280;47864;52.526;19.672;2023-04-23T00:47:10;100542.72;;;8.17;100.00
61908;BME280;47864;52.526;19.672;2023-04-23T00:49:13;100545.66;;;8.14;100.00
61908;BME280;47864;52.526;19.672;2023-04-23T00:51:15;100523.66;;;8.03;100.00
61908;BME280;47864;52.526;19.672;2023-04-23T00:53:17;100518.63;;;8.00;100.00
61908;BME280;47864;52.526;19.672;2023-04-23T00:55:18;100545.66;;;8.14;100.00
61908;BME280;47864;52.526;19.672;2023-04-23T00:57:23;100540.50;;;8.12;100.00
61908;BME280;47864;52.526;19.672;2023-04-23T00:59:24;100535.75;;;8.16;100.00
61908;BME280;47864;52.526;19.672;2023-04-23T01:01:27;100542.16;;;8.13;100.00
61908;BME280;47864;52.526;19.672;2023-04-23T01:03:29;100523.50;;;7.95;100.00
61908;BME280;47864;52.526;19.672;2023-04-23T01:05:31;100545.22;;;8.09;100.00
61908;BME280;47864;52.526;19.672;2023-04-23T01:07:33;100544.09;;;8.11;100.00
61908;BME280;47864;52.526;19.672;2023-04-23T01:09:35;100530.31;;;7.88;100.00
61908;BME280;47864;52.526;19.672;2023-04-23T01:11:38;100540.75;;;7.90;100.00
61908;BME280;47864;52.526;19.672;2023-04-23T01:13:40;100521.25;;;7.81;100.00
61908;BME280;47864;52.526;19.672;2023-04-23T01:15:43;100525.53;;;7.73;100.00
61908;BME280;47864;52.526;19.672;2023-04-23T01:17:45;100536.81;;;7.84;100.00
61908;BME280;47864;52.526;19.672;2023-04-23T01:19:46;100534.47;;;7.81;100.00
61908;BME280;47864;52.526;19.672;2023-04-23T01:21:48;100541.13;;;7.85;100.00
61908;BME280;47864;52.526;19.672;2023-04-23T01:23:50;100521.09;;;7.83;100.00
61908;BME280;47864;52.526;19.672;2023-04-23T01:25:52;100541.72;;;7.89;100.00
61908;BME280;47864;52.526;19.672;2023-04-23T01:27:55;100511.25;;;7.85;100.00
61908;BME280;47864;52.526;19.672;2023-04-23T01:29:57;100533.81;;;8.08;100.00
61908;BME280;47864;52.526;19.672;2023-04-23T01:31:59;100524.63;;;8.02;100.00
61908;BME280;47864;52.526;19.672;2023-04-23T01:34:00;100515.19;;;8.10;100.00
61908;BME280;47864;52.526;19.672;2023-04-23T01:36:02;100524.09;;;8.28;100.00
61908;BME280;47864;52.526;19.672;2023-04-23T01:38:06;100509.22;;;8.17;100.00
61908;BME280;47864;52.526;19.672;2023-04-23T01:40:09;100487.22;;;8.07;100.00
61908;BME280;47864;52.526;19.672;2023-04-23T01:42:10;100522.06;;;8.31;100.00
61908;BME280;47864;52.526;19.672;2023-04-23T01:44:12;100537.78;;;8.43;100.00
61908;BME280;47864;52.526;19.672;2023-04-23T01:46:13;100540.97;;;8.36;100.00
61908;BME280;47864;52.526;19.672;2023-04-23T01:48:15;100523.13;;;8.29;100.00
61908;BME280;47864;52.526;19.672;2023-04-23T01:50:17;100540.56;;;8.31;100.00
61908;BME280;47864;52.526;19.672;2023-04-23T01:52:19;100535.13;;;8.33;100.00
61908;BME280;47864;52.526;19.672;2023-04-23T01:54:20;100523.94;;;8.10;100.00
61908;BME280;47864;52.526;19.672;2023-04-23T01:56:24;100537.69;;;8.04;100.00
61908;BME280;47864;52.526;19.672;2023-04-23T01:58:27;100529.81;;;8.14;100.00
61908;BME280;47864;52.526;19.672;2023-04-23T02:00:29;100526.34;;;8.23;100.00
61908;BME280;47864;52.526;19.672;2023-04-23T02:02:30;100510.34;;;8.15;100.00
61908;BME280;47864;52.526;19.672;2023-04-23T02:04:32;100527.41;;;8.11;100.00
61908;BME280;47864;52.526;19.672;2023-04-23T02:06:34;100528.41;;;8.19;100.00
61908;BME280;47864;52.526;19.672;2023-04-23T02:08:37;100526.59;;;8.20;100.00
61908;BME280;47864;52.526;19.672;2023-04-23T02:10:38;100540.25;;;8.15;100.00
61908;BME280;47864;52.526;19.672;2023-04-23T02:12:41;100537.03;;;8.12;100.00
61908;BME280;47864;52.526;19.672;2023-04-23T02:14:42;100525.63;;;8.21;100.00
61908;BME280;47864;52.526;19.672;2023-04-23T02:16:44;100524.06;;;8.09;100.00
61908;BME280;47864;52.526;19.672;2023-04-23T02:18:45;100504.75;;;7.98;100.00
61908;BME280;47864;52.526;19.672;2023-04-23T02:20:47;100512.38;;;8.01;100.00
61908;BME280;47864;52.526;19.672;2023-04-23T02:22:49;100525.03;;;7.98;100.00
61908;BME280;47864;52.526;19.672;2023-04-23T02:24:51;100518.63;;;8.00;100.00
61908;BME280;47864;52.526;19.672;2023-04-23T02:26:53;100515.47;;;8.07;100.00
61908;BME280;47864;52.526;19.672;2023-04-23T02:28:54;100505.16;;;7.94;100.00
61908;BME280;47864;52.526;19.672;2023-04-23T02:30:56;100515.16;;;8.00;100.00
61908;BME280;47864;52.526;19.672;2023-04-23T02:32:57;100504.19;;;7.95;100.00
61908;BME280;47864;52.526;19.672;2023-04-23T02:34:59;100511.84;;;7.98;100.00
61908;BME280;47864;52.526;19.672;2023-04-23T02:37:00;100503.34;;;7.94;100.00
61908;BME280;47864;52.526;19.672;2023-04-23T02:39:03;100508.22;;;7.89;100.00
61908;BME280;47864;52.526;19.672;2023-04-23T02:41:04;100486.47;;;7.76;100.00
61908;BME280;47864;52.526;19.672;2023-04-23T02:43:06;100484.69;;;7.77;100.00
61908;BME280;47864;52.526;19.672;2023-04-23T02:45:07;100505.28;;;7.92;100.00
61908;BME280;47864;52.526;19.672;2023-04-23T02:47:09;100510.03;;;7.98;100.00
61908;BME280;47864;52.526;19.672;2023-04-23T02:49:11;100510.56;;;7.92;100.00
61908;BME280;47864;52.526;19.672;2023-04-23T02:51:13;100502.22;;;7.87;100.00
61908;BME280;47864;52.526;19.672;2023-04-23T02:53:15;100497.47;;;7.91;100.00
61908;BME280;47864;52.526;19.672;2023-04-23T02:55:16;100509.34;;;7.96;100.00
61908;BME280;47864;52.526;19.672;2023-04-23T02:57:18;100511.13;;;7.96;100.00
61908;BME280;47864;52.526;19.672;2023-04-23T02:59:20;100510.56;;;7.92;100.00
61908;BME280;47864;52.526;19.672;2023-04-23T03:01:21;100482.16;;;7.75;100.00
61908;BME280;47864;52.526;19.672;2023-04-23T03:03:24;100512.09;;;7.95;100.00
61908;BME280;47864;52.526;19.672;2023-04-23T03:05:26;100510.28;;;7.86;100.00
61908;BME280;47864;52.526;19.672;2023-04-23T03:07:27;100491.88;;;7.75;100.00
61908;BME280;47864;52.526;19.672;2023-04-23T03:09:29;100505.94;;;7.75;100.00
61908;BME280;47864;52.526;19.672;2023-04-23T03:11:30;100514.16;;;7.82;100.00
61908;BME280;47864;52.526;19.672;2023-04-23T03:13:32;100498.84;;;7.76;100.00
61908;BME280;47864;52.526;19.672;2023-04-23T03:15:33;100511.91;;;7.77;100.00
61908;BME280;47864;52.526;19.672;2023-04-23T03:17:35;100506.09;;;7.83;100.00
61908;BME280;47864;52.526;19.672;2023-04-23T03:19:36;100510.94;;;7.78;100.00
61908;BME280;47864;52.526;19.672;2023-04-23T03:21:38;100502.75;;;7.72;100.00
61908;BME280;47864;52.526;19.672;2023-04-23T03:23:39;100504.94;;;7.67;100.00
61908;BME280;47864;52.526;19.672;2023-04-23T03:25:41;100496.28;;;7.55;100.00
61908;BME280;47864;52.526;19.672;2023-04-23T03:27:43;100499.81;;;7.65;100.00
61908;BME280;47864;52.526;19.672;2023-04-23T03:29:44;100495.38;;;7.75;100.00
61908;BME280;47864;52.526;19.672;2023-04-23T03:31:45;100495.63;;;7.62;100.00
61908;BME280;47864;52.526;19.672;2023-04-23T03:33:47;100497.47;;;7.72;100.00
61908;BME280;47864;52.526;19.672;2023-04-23T03:35:49;100497.84;;;7.67;100.00
61908;BME280;47864;52.526;19.672;2023-04-23T03:37:50;100498.16;;;7.74;100.00
61908;BME280;47864;52.526;19.672;2023-04-23T03:39:52;100493.41;;;7.68;100.00
61908;BME280;47864;52.526;19.672;2023-04-23T03:41:54;100484.22;;;7.62;100.00
61908;BME280;47864;52.526;19.672;2023-04-23T03:43:55;100486.44;;;7.57;100.00
61908;BME280;47864;52.526;19.672;2023-04-23T03:45:57;100502.06;;;7.79;100.00
61908;BME280;47864;52.526;19.672;2023-04-23T03:47:59;100501.47;;;7.76;100.00
61908;BME280;47864;52.526;19.672;2023-04-23T03:50:00;100482.69;;;7.59;100.00
61908;BME280;47864;52.526;19.672;2023-04-23T03:52:01;100499.13;;;7.73;100.00
61908;BME280;47864;52.526;19.672;2023-04-23T03:54:03;100481.47;;;7.63;100.00
61908;BME280;47864;52.526;19.672;2023-04-23T03:56:05;100497.75;;;7.78;100.00
61908;BME280;47864;52.526;19.672;2023-04-23T03:58:06;100496.97;;;7.97;100.00
61908;BME280;47864;52.526;19.672;2023-04-23T04:00:08;100486.88;;;8.31;100.00
61908;BME280;47864;52.526;19.672;2023-04-23T04:02:09;100493.34;;;8.94;100.00
61908;BME280;47864;52.526;19.672;2023-04-23T04:04:11;100475.19;;;9.09;100.00
61908;BME280;47864;52.526;19.672;2023-04-23T04:06:13;100488.25;;;9.20;100.00
61908;BME280;47864;52.526;19.672;2023-04-23T04:08:15;100498.03;;;9.00;100.00
61908;BME280;47864;52.526;19.672;2023-04-23T04:10:16;100482.75;;;9.31;100.00
61908;BME280;47864;52.526;19.672;2023-04-23T04:12:18;100479.91;;;9.97;100.00
61908;BME280;47864;52.526;19.672;2023-04-23T04:14:22;100477.59;;;10.47;100.00
61908;BME280;47864;52.526;19.672;2023-04-23T04:16:24;100487.31;;;10.82;100.00
61908;BME280;47864;52.526;19.672;2023-04-23T04:18:25;100505.13;;;11.75;100.00
61908;BME280;47864;52.526;19.672;2023-04-23T04:20:27;100496.22;;;11.93;100.00
61908;BME280;47864;52.526;19.672;2023-04-23T04:22:29;100480.41;;;11.83;100.00
61908;BME280;47864;52.526;19.672;2023-04-23T04:24:30;100491.28;;;11.72;100.00
61908;BME280;47864;52.526;19.672;2023-04-23T04:26:32;100497.28;;;12.40;100.00
61908;BME280;47864;52.526;19.672;2023-04-23T04:28:34;100492.47;;;12.60;100.00
61908;BME280;47864;52.526;19.672;2023-04-23T04:30:35;100489.16;;;12.58;100.00
61908;BME280;47864;52.526;19.672;2023-04-23T04:32:37;100469.47;;;13.00;98.74
61908;BME280;47864;52.526;19.672;2023-04-23T04:34:39;100480.28;;;13.14;93.79
61908;BME280;47864;52.526;19.672;2023-04-23T04:36:41;100457.91;;;13.40;92.82
61908;BME280;47864;52.526;19.672;2023-04-23T04:38:43;100474.16;;;13.53;89.91
61908;BME280;47864;52.526;19.672;2023-04-23T04:40:44;100477.63;;;13.92;88.96
61908;BME280;47864;52.526;19.672;2023-04-23T04:42:46;100491.69;;;14.09;89.59
61908;BME280;47864;52.526;19.672;2023-04-23T04:44:47;100492.91;;;14.29;86.37
61908;BME280;47864;52.526;19.672;2023-04-23T04:46:49;100499.03;;;14.38;84.57
61908;BME280;47864;52.526;19.672;2023-04-23T04:48:51;100493.88;;;14.36;83.93
61908;BME280;47864;52.526;19.672;2023-04-23T04:50:53;100495.69;;;14.13;84.84
61908;BME280;47864;52.526;19.672;2023-04-23T04:52:54;100501.91;;;14.97;80.47
61908;BME280;47864;52.526;19.672;2023-04-23T04:54:56;100479.50;;;14.45;81.41
61908;BME280;47864;52.526;19.672;2023-04-23T04:56:57;100491.47;;;14.19;81.55
61908;BME280;47864;52.526;19.672;2023-04-23T04:58:59;100484.78;;;14.68;82.11
61908;BME280;47864;52.526;19.672;2023-04-23T05:01:00;100490.03;;;14.62;82.47
61908;BME280;47864;52.526;19.672;2023-04-23T05:03:02;100483.47;;;14.87;78.71
61908;BME280;47864;52.526;19.672;2023-04-23T05:05:05;100484.13;;;15.04;79.00
61908;BME280;47864;52.526;19.672;2023-04-23T05:07:06;100481.47;;;15.33;76.18
61908;BME280;47864;52.526;19.672;2023-04-23T05:09:08;100489.41;;;15.12;77.00
61908;BME280;47864;52.526;19.672;2023-04-23T05:11:09;100488.03;;;15.89;76.94
61908;BME280;47864;52.526;19.672;2023-04-23T05:13:11;100494.66;;;16.15;75.83
61908;BME280;47864;52.526;19.672;2023-04-23T05:15:13;100488.50;;;15.78;75.44
61908;BME280;47864;52.526;19.672;2023-04-23T05:17:14;100484.34;;;16.33;73.69
61908;BME280;47864;52.526;19.672;2023-04-23T05:19:16;100494.47;;;16.16;72.50
61908;BME280;47864;52.526;19.672;2023-04-23T05:21:17;100469.63;;;16.65;72.30
61908;BME280;47864;52.526;19.672;2023-04-23T05:23:19;100479.44;;;16.58;72.13
61908;BME280;47864;52.526;19.672;2023-04-23T05:25:20;100477.50;;;16.94;69.60
61908;BME280;47864;52.526;19.672;2023-04-23T05:27:22;100477.69;;;16.93;70.09
61908;BME280;47864;52.526;19.672;2023-04-23T05:29:23;100464.22;;;16.80;69.17
61908;BME280;47864;52.526;19.672;2023-04-23T05:31:25;100482.38;;;16.42;68.63
61908;BME280;47864;52.526;19.672;2023-04-23T05:33:29;100489.72;;;16.76;68.04
61908;BME280;47864;52.526;19.672;2023-04-23T05:35:46;100476.13;;;17.05;66.72
61908;BME280;47864;52.526;19.672;2023-04-23T05:37:48;100488.19;;;16.66;65.52
61908;BME280;47864;52.526;19.672;2023-04-23T05:39:49;100462.16;;;17.09;64.55
61908;BME280;47864;52.526;19.672;2023-04-23T05:41:52;100490.84;;;17.50;61.79
61908;BME280;47864;52.526;19.672;2023-04-23T05:43:53;100436.94;;;16.27;63.45
61908;BME280;47864;52.526;19.672;2023-04-23T05:45:55;100487.78;;;16.48;64.37
61908;BME280;47864;52.526;19.672;2023-04-23T05:47:56;100478.59;;;16.57;63.04
61908;BME280;47864;52.526;19.672;2023-04-23T05:49:58;100483.88;;;16.93;62.40
61908;BME280;47864;52.526;19.672;2023-04-23T05:52:00;100481.59;;;16.90;62.17
61908;BME280;47864;52.526;19.672;2023-04-23T05:54:01;100482.19;;;17.96;61.30
61908;BME280;47864;52.526;19.672;2023-04-23T05:56:03;100486.53;;;17.56;58.68
61908;BME280;47864;52.526;19.672;2023-04-23T05:58:05;100489.38;;;17.82;59.06
61908;BME280;47864;52.526;19.672;2023-04-23T06:00:07;100484.94;;;18.22;56.78
61908;BME280;47864;52.526;19.672;2023-04-23T06:02:09;100488.38;;;17.55;58.80
61908;BME280;47864;52.526;19.672;2023-04-23T06:04:11;100483.81;;;17.83;57.82
61908;BME280;47864;52.526;19.672;2023-04-23T06:06:13;100482.97;;;17.83;56.98
61908;BME280;47864;52.526;19.672;2023-04-23T06:08:15;100483.25;;;17.54;57.85
61908;BME280;47864;52.526;19.672;2023-04-23T06:10:16;100486.31;;;17.50;58.58
61908;BME280;47864;52.526;19.672;2023-04-23T06:12:17;100487.81;;;17.60;58.45
61908;BME280;47864;52.526;19.672;2023-04-23T06:14:19;100484.72;;;18.10;57.45
61908;BME280;47864;52.526;19.672;2023-04-23T06:16:21;100476.28;;;18.20;55.89
61908;BME280;47864;52.526;19.672;2023-04-23T06:18:22;100447.38;;;18.35;56.24
61908;BME280;47864;52.526;19.672;2023-04-23T06:20:24;100477.56;;;19.03;53.50
61908;BME280;47864;52.526;19.672;2023-04-23T06:22:25;100457.53;;;18.99;53.48
61908;BME280;47864;52.526;19.672;2023-04-23T06:24:27;100457.34;;;18.68;53.20
61908;BME280;47864;52.526;19.672;2023-04-23T06:26:28;100476.16;;;18.81;53.84
61908;BME280;47864;52.526;19.672;2023-04-23T06:28:32;100479.84;;;19.06;53.75
61908;BME280;47864;52.526;19.672;2023-04-23T06:30:34;100479.38;;;18.30;54.85
61908;BME280;47864;52.526;19.672;2023-04-23T06:32:35;100474.06;;;18.70;55.15
61908;BME280;47864;52.526;19.672;2023-04-23T06:34:37;100466.00;;;19.16;54.03
61908;BME280;47864;52.526;19.672;2023-04-23T06:36:53;100460.63;;;19.80;52.09
61908;BME280;47864;52.526;19.672;2023-04-23T06:38:55;100455.16;;;19.42;51.58
61908;BME280;47864;52.526;19.672;2023-04-23T06:40:57;100469.59;;;19.61;51.93
61908;BME280;47864;52.526;19.672;2023-04-23T06:42:58;100466.88;;;19.74;51.60
61908;BME280;47864;52.526;19.672;2023-04-23T06:45:00;100461.63;;;20.24;50.14
61908;BME280;47864;52.526;19.672;2023-04-23T06:47:03;100462.63;;;20.29;50.06
61908;BME280;47864;52.526;19.672;2023-04-23T06:49:05;100446.97;;;19.82;51.41
61908;BME280;47864;52.526;19.672;2023-04-23T06:51:07;100464.63;;;20.72;50.38
61908;BME280;47864;52.526;19.672;2023-04-23T06:53:08;100444.09;;;20.46;49.31
61908;BME280;47864;52.526;19.672;2023-04-23T06:55:10;100436.28;;;20.38;49.28
61908;BME280;47864;52.526;19.672;2023-04-23T06:57:12;100456.63;;;21.08;48.46
61908;BME280;47864;52.526;19.672;2023-04-23T06:59:13;100448.06;;;20.68;49.71
61908;BME280;47864;52.526;19.672;2023-04-23T07:01:15;100463.56;;;20.48;49.55
61908;BME280;47864;52.526;19.672;2023-04-23T07:03:17;100460.66;;;20.49;50.08
61908;BME280;47864;52.526;19.672;2023-04-23T07:05:19;100435.75;;;20.54;49.50
61908;BME280;47864;52.526;19.672;2023-04-23T07:07:20;100450.09;;;21.16;49.12
61908;BME280;47864;52.526;19.672;2023-04-23T07:09:22;100431.44;;;21.14;47.99
61908;BME280;47864;52.526;19.672;2023-04-23T07:11:23;100458.41;;;21.39;47.48
61908;BME280;47864;52.526;19.672;2023-04-23T07:13:25;100450.94;;;21.16;50.70
61908;BME280;47864;52.526;19.672;2023-04-23T07:15:26;100450.16;;;21.09;48.38
61908;BME280;47864;52.526;19.672;2023-04-23T07:17:28;100427.28;;;20.94;50.86
61908;BME280;47864;52.526;19.672;2023-04-23T07:19:29;100439.47;;;20.78;49.42
61908;BME280;47864;52.526;19.672;2023-04-23T07:21:31;100434.44;;;21.79;48.85
61908;BME280;47864;52.526;19.672;2023-04-23T07:23:32;100401.69;;;22.17;46.85
61908;BME280;47864;52.526;19.672;2023-04-23T07:25:34;100437.22;;;22.32;45.34
61908;BME280;47864;52.526;19.672;2023-04-23T07:27:35;100408.78;;;22.30;44.94
61908;BME280;47864;52.526;19.672;2023-04-23T07:29:37;100435.38;;;22.45;46.84
61908;BME280;47864;52.526;19.672;2023-04-23T07:31:39;100431.69;;;22.81;44.08
61908;BME280;47864;52.526;19.672;2023-04-23T07:33:40;100436.00;;;23.17;43.90
61908;BME280;47864;52.526;19.672;2023-04-23T07:35:42;100435.44;;;22.80;43.41
61908;BME280;47864;52.526;19.672;2023-04-23T07:37:43;100430.41;;;23.58;42.29
61908;BME280;47864;52.526;19.672;2023-04-23T07:39:44;100431.97;;;23.54;41.22
61908;BME280;47864;52.526;19.672;2023-04-23T07:41:46;100427.44;;;23.71;42.09
61908;BME280;47864;52.526;19.672;2023-04-23T07:43:48;100423.66;;;24.01;39.62
61908;BME280;47864;52.526;19.672;2023-04-23T07:45:49;100429.78;;;23.79;41.71
61908;BME280;47864;52.526;19.672;2023-04-23T07:47:51;100408.22;;;23.73;44.94
61908;BME280;47864;52.526;19.672;2023-04-23T07:49:53;100418.78;;;23.46;39.42
61908;BME280;47864;52.526;19.672;2023-04-23T07:51:54;100408.03;;;23.63;37.68
61908;BME280;47864;52.526;19.672;2023-04-23T07:53:56;100411.78;;;23.10;39.20
61908;BME280;47864;52.526;19.672;2023-04-23T07:55:57;100420.69;;;23.34;39.91
61908;BME280;47864;52.526;19.672;2023-04-23T07:57:59;100420.66;;;23.45;39.90
61908;BME280;47864;52.526;19.672;2023-04-23T08:00:01;100398.25;;;22.98;40.21
61908;BME280;47864;52.526;19.672;2023-04-23T08:02:02;100410.94;;;22.98;38.87
61908;BME280;47864;52.526;19.672;2023-04-23T08:04:04;100395.44;;;23.05;39.57
61908;BME280;47864;52.526;19.672;2023-04-23T08:06:06;100408.25;;;23.09;38.23
61908;BME280;47864;52.526;19.672;2023-04-23T08:08:10;100401.56;;;22.89;38.42
61908;BME280;47864;52.526;19.672;2023-04-23T08:10:12;100385.50;;;22.29;38.39
61908;BME280;47864;52.526;19.672;2023-04-23T08:12:13;100409.28;;;22.73;38.32
61908;BME280;47864;52.526;19.672;2023-04-23T08:14:16;100406.50;;;22.92;37.67
61908;BME280;47864;52.526;19.672;2023-04-23T08:16:18;100407.44;;;22.97;37.96
61908;BME280;47864;52.526;19.672;2023-04-23T08:18:19;100413.56;;;23.04;38.45
61908;BME280;47864;52.526;19.672;2023-04-23T08:20:21;100393.34;;;22.95;38.47
61908;BME280;47864;52.526;19.672;2023-04-23T08:22:22;100406.38;;;23.10;37.51
61908;BME280;47864;52.526;19.672;2023-04-23T08:24:24;100364.41;;;22.96;37.55
61908;BME280;47864;52.526;19.672;2023-04-23T08:26:26;100408.31;;;23.38;35.84
61908;BME280;47864;52.526;19.672;2023-04-23T08:28:27;100393.38;;;23.24;36.08
61908;BME280;47864;52.526;19.672;2023-04-23T08:30:28;100393.81;;;22.81;36.55
61908;BME280;47864;52.526;19.672;2023-04-23T08:32:30;100382.03;;;22.75;36.45
61908;BME280;47864;52.526;19.672;2023-04-23T08:34:31;100398.63;;;23.02;35.48
61908;BME280;47864;52.526;19.672;2023-04-23T08:36:36;100387.88;;;22.49;35.42
61908;BME280;47864;52.526;19.672;2023-04-23T08:38:37;100388.00;;;22.54;35.68
61908;BME280;47864;52.526;19.672;2023-04-23T08:40:41;100395.22;;;22.95;36.01
61908;BME280;47864;52.526;19.672;2023-04-23T08:42:56;100392.16;;;22.91;37.24
61908;BME280;47864;52.526;19.672;2023-04-23T08:44:58;100373.44;;;22.90;35.19
61908;BME280;47864;52.526;19.672;2023-04-23T08:47:03;100382.91;;;23.27;35.32
61908;BME280;47864;52.526;19.672;2023-04-23T08:49:06;100386.09;;;23.24;35.73
61908;BME280;47864;52.526;19.672;2023-04-23T08:51:08;100393.28;;;23.19;35.40
61908;BME280;47864;52.526;19.672;2023-04-23T08:53:17;100391.94;;;23.44;38.51
61908;BME280;47864;52.526;19.672;2023-04-23T08:55:20;100383.88;;;23.21;35.96
61908;BME280;47864;52.526;19.672;2023-04-23T08:57:23;100382.38;;;23.02;36.79
61908;BME280;47864;52.526;19.672;2023-04-23T08:59:25;100365.72;;;23.33;35.46
61908;BME280;47864;52.526;19.672;2023-04-23T09:01:28;100373.75;;;23.17;36.34
61908;BME280;47864;52.526;19.672;2023-04-23T09:03:30;100368.28;;;23.40;36.32
61908;BME280;47864;52.526;19.672;2023-04-23T09:05:32;100373.97;;;23.27;35.99
61908;BME280;47864;52.526;19.672;2023-04-23T09:07:34;100360.63;;;22.97;35.72
61908;BME280;47864;52.526;19.672;2023-04-23T09:09:37;100368.16;;;22.83;36.51
61908;BME280;47864;52.526;19.672;2023-04-23T09:11:39;100367.59;;;23.33;37.13
61908;BME280;47864;52.526;19.672;2023-04-23T09:13:40;100373.44;;;23.13;37.14
61908;BME280;47864;52.526;19.672;2023-04-23T09:15:42;100368.50;;;23.50;36.49
61908;BME280;47864;52.526;19.672;2023-04-23T09:17:45;100373.72;;;23.80;35.29
61908;BME280;47864;52.526;19.672;2023-04-23T09:19:48;100377.28;;;23.69;33.67
61908;BME280;47864;52.526;19.672;2023-04-23T09:21:51;100357.22;;;23.53;34.58
61908;BME280;47864;52.526;19.672;2023-04-23T09:23:52;100374.66;;;23.74;34.90
61908;BME280;47864;52.526;19.672;2023-04-23T09:25:55;100375.91;;;23.83;35.05
61908;BME280;47864;52.526;19.672;2023-04-23T09:27:57;100368.41;;;23.73;34.75
61908;BME280;47864;52.526;19.672;2023-04-23T09:29:59;100334.53;;;23.71;33.29
61908;BME280;47864;52.526;19.672;2023-04-23T09:32:08;100366.97;;;23.54;34.15
61908;BME280;47864;52.526;19.672;2023-04-23T09:34:09;100357.81;;;23.43;35.40
61908;BME280;47864;52.526;19.672;2023-04-23T09:36:14;100374.19;;;23.77;38.72
61908;BME280;47864;52.526;19.672;2023-04-23T09:38:18;100353.22;;;23.72;35.08
61908;BME280;47864;52.526;19.672;2023-04-23T09:40:22;100358.50;;;23.79;35.13
61908;BME280;47864;52.526;19.672;2023-04-23T09:42:25;100341.31;;;24.18;35.38
61908;BME280;47864;52.526;19.672;2023-04-23T09:44:31;100354.97;;;24.23;35.58
61908;BME280;47864;52.526;19.672;2023-04-23T09:46:40;100357.50;;;23.68;35.47
61908;BME280;47864;52.526;19.672;2023-04-23T09:48:42;100354.28;;;23.55;35.61
61908;BME280;47864;52.526;19.672;2023-04-23T09:50:43;100325.88;;;24.02;36.25
61908;BME280;47864;52.526;19.672;2023-04-23T09:52:53;100323.72;;;23.87;35.37
61908;BME280;47864;52.526;19.672;2023-04-23T09:54:57;100342.53;;;24.11;36.69
61908;BME280;47864;52.526;19.672;2023-04-23T09:57:01;100322.19;;;23.63;35.47
61908;BME280;47864;52.526;19.672;2023-04-23T09:59:21;100330.69;;;23.83;35.11
61908;BME280;47864;52.526;19.672;2023-04-23T10:01:36;100320.09;;;23.99;36.35
61908;BME280;47864;52.526;19.672;2023-04-23T10:03:43;100323.72;;;24.04;34.96
61908;BME280;47864;52.526;19.672;2023-04-23T10:05:45;100307.09;;;23.67;37.18
61908;BME280;47864;52.526;19.672;2023-04-23T10:08:03;100306.31;;;23.27;35.65
61908;BME280;47864;52.526;19.672;2023-04-23T10:10:06;100320.69;;;24.01;36.44
61908;BME280;47864;52.526;19.672;2023-04-23T10:12:08;100299.00;;;24.17;36.03
61908;BME280;47864;52.526;19.672;2023-04-23T10:14:29;100307.06;;;23.96;33.77
61908;BME280;47864;52.526;19.672;2023-04-23T10:16:31;100308.47;;;23.53;34.93
61908;BME280;47864;52.526;19.672;2023-04-23T10:18:52;100297.28;;;23.95;34.61
61908;BME280;47864;52.526;19.672;2023-04-23T10:20:53;100302.88;;;24.21;35.77
61908;BME280;47864;52.526;19.672;2023-04-23T10:22:56;100294.97;;;23.86;32.64
61908;BME280;47864;52.526;19.672;2023-04-23T10:24:59;100304.44;;;23.56;32.84
61908;BME280;47864;52.526;19.672;2023-04-23T10:27:03;100302.06;;;23.59;33.07
61908;BME280;47864;52.526;19.672;2023-04-23T10:29:08;100303.31;;;23.68;33.35
61908;BME280;47864;52.526;19.672;2023-04-23T10:31:14;100281.47;;;23.58;33.13